createdAt,value
2018-09-18T00:02:54.677Z,13.80
2018-09-18T00:07:59.151Z,13.70
2018-09-18T00:13:04.489Z,13.70
2018-09-18T00:18:08.946Z,13.70
2018-09-18T00:23:13.515Z,13.70
2018-09-18T00:28:18.764Z,13.70
2018-09-18T00:33:23.418Z,13.80
2018-09-18T00:38:28.348Z,13.90
2018-09-18T00:43:32.809Z,14.00
2018-09-18T00:48:37.460Z,14.00
2018-09-18T00:53:42.079Z,13.90
2018-09-18T00:58:46.595Z,13.80
2018-09-18T01:03:51.073Z,13.80
2018-09-18T01:08:56.207Z,13.80
2018-09-18T01:14:01.246Z,13.80
2018-09-18T01:19:05.738Z,13.80
2018-09-18T01:24:10.507Z,13.70
2018-09-18T01:29:15.676Z,13.60
2018-09-18T01:34:20.997Z,13.80
2018-09-18T01:39:25.553Z,13.80
2018-09-18T01:44:30.300Z,13.90
2018-09-18T01:49:35.582Z,13.80
2018-09-18T01:54:40.110Z,13.90
2018-09-18T01:59:44.559Z,13.80
2018-09-18T02:04:49.830Z,13.60
2018-09-18T02:09:55.356Z,13.50
2018-09-18T02:14:59.865Z,13.50
2018-09-18T02:20:04.729Z,13.50
2018-09-18T02:25:09.259Z,13.50
2018-09-18T02:30:13.792Z,13.40
2018-09-18T02:35:18.464Z,13.40
2018-09-18T02:40:23.165Z,13.50
2018-09-18T02:45:27.700Z,13.50
2018-09-18T02:50:32.219Z,13.30
2018-09-18T02:55:36.857Z,13.30
2018-09-18T03:00:41.333Z,13.30
2018-09-18T03:05:47.302Z,13.30
2018-09-18T03:10:51.820Z,13.30
2018-09-18T03:15:56.265Z,13.10
2018-09-18T03:21:00.854Z,13.20
2018-09-18T03:26:05.316Z,13.30
2018-09-18T03:31:09.860Z,13.20
2018-09-18T03:36:14.288Z,13.20
2018-09-18T03:41:18.851Z,13.10
2018-09-18T03:46:23.479Z,13.00
2018-09-18T03:51:28.195Z,13.00
2018-09-18T03:56:32.934Z,13.00
2018-09-18T04:01:37.609Z,13.00
2018-09-18T04:06:41.935Z,12.90
2018-09-18T04:11:46.478Z,12.80
2018-09-18T04:16:50.901Z,12.60
2018-09-18T04:21:55.380Z,12.60
2018-09-18T04:27:01.527Z,12.60
2018-09-18T04:32:06.222Z,12.60
2018-09-18T04:37:11.951Z,12.60
2018-09-18T04:42:16.798Z,12.60
2018-09-18T04:47:21.432Z,12.50
2018-09-18T04:52:26.042Z,12.60
2018-09-18T04:57:30.568Z,12.60
2018-09-18T05:02:34.880Z,12.60
2018-09-18T05:07:39.214Z,12.50
2018-09-18T05:12:43.781Z,12.60
2018-09-18T05:17:48.355Z,12.70
2018-09-18T05:22:53.569Z,12.60
2018-09-18T05:27:57.900Z,12.50
2018-09-18T05:33:02.330Z,12.50
2018-09-18T05:38:06.558Z,12.70
2018-09-18T05:43:10.875Z,12.90
2018-09-18T05:48:15.549Z,12.90
2018-09-18T05:53:20.155Z,12.90
2018-09-18T05:58:25.152Z,13.00
2018-09-18T06:03:29.963Z,13.20
2018-09-18T06:08:35.628Z,13.40
2018-09-18T06:13:40.954Z,13.70
2018-09-18T06:18:46.234Z,14.20
2018-09-18T06:23:51.242Z,14.90
2018-09-18T06:28:56.320Z,15.50
2018-09-18T06:34:00.925Z,15.90
2018-09-18T06:39:08.296Z,16.10
2018-09-18T06:44:12.865Z,16.10
2018-09-18T06:49:17.430Z,16.10
2018-09-18T06:54:22.508Z,16.00
2018-09-18T06:59:27.022Z,16.20
2018-09-18T07:04:31.359Z,16.60
2018-09-18T07:09:36.337Z,17.00
2018-09-18T07:14:40.784Z,17.40
2018-09-18T07:19:45.168Z,18.00
2018-09-18T07:24:49.624Z,18.00
2018-09-18T07:29:54.540Z,18.10
2018-09-18T07:34:59.535Z,18.40
2018-09-18T07:40:04.192Z,18.50
2018-09-18T07:45:09.419Z,18.70
2018-09-18T07:50:15.189Z,18.90
2018-09-18T07:55:20.167Z,18.90
2018-09-18T08:00:25.704Z,18.80
2018-09-18T08:05:36.035Z,19.20
2018-09-18T08:10:42.806Z,19.60
2018-09-18T08:15:48.188Z,19.40
2018-09-18T08:20:52.673Z,19.70
2018-09-18T08:25:57.368Z,19.90
2018-09-18T08:31:02.046Z,20.00
2018-09-18T08:36:06.635Z,20.20
2018-09-18T08:41:11.219Z,20.20
2018-09-18T08:46:16.215Z,20.30
2018-09-18T08:51:20.926Z,20.20
2018-09-18T08:56:25.402Z,20.80
2018-09-18T09:01:30.227Z,21.10
2018-09-18T09:06:34.687Z,21.30
2018-09-18T09:11:38.897Z,21.40
2018-09-18T09:16:43.504Z,22.00
2018-09-18T09:21:48.100Z,21.60
2018-09-18T09:26:52.825Z,21.50
2018-09-18T09:31:57.473Z,21.60
2018-09-18T09:37:02.042Z,21.40
2018-09-18T09:42:07.062Z,21.40
2018-09-18T09:47:11.782Z,21.70
2018-09-18T09:52:16.304Z,22.40
2018-09-18T09:57:21.223Z,22.70
2018-09-18T10:02:28.580Z,22.90
2018-09-18T10:07:33.284Z,22.90
2018-09-18T10:12:37.819Z,23.00
2018-09-18T10:17:43.679Z,23.20
2018-09-18T10:22:48.110Z,23.30
2018-09-18T10:27:53.651Z,23.90
2018-09-18T10:32:58.297Z,23.70
2018-09-18T10:38:02.755Z,24.10
2018-09-18T10:43:07.784Z,23.80
2018-09-18T10:48:13.270Z,23.50
2018-09-18T10:53:18.494Z,23.60
2018-09-18T10:58:23.044Z,23.90
2018-09-18T11:03:27.675Z,23.80
2018-09-18T11:08:32.161Z,23.60
2018-09-18T11:13:36.481Z,23.60
2018-09-18T11:18:41.587Z,23.30
2018-09-18T11:23:46.107Z,23.60
2018-09-18T11:28:50.614Z,23.30
2018-09-18T11:33:55.412Z,23.10
2018-09-18T11:39:00.004Z,23.00
2018-09-18T11:44:05.127Z,22.90
2018-09-18T11:49:09.671Z,23.00
2018-09-18T11:54:14.313Z,22.90
2018-09-18T11:59:18.719Z,22.80
2018-09-18T12:04:23.285Z,22.80
2018-09-18T12:09:28.591Z,22.80
2018-09-18T12:14:33.709Z,22.60
2018-09-18T12:19:38.823Z,22.40
2018-09-18T12:24:43.575Z,22.60
2018-09-18T12:29:48.217Z,22.70
2018-09-18T12:34:52.725Z,23.00
2018-09-18T12:39:57.339Z,23.10
2018-09-18T12:45:01.850Z,22.70
2018-09-18T12:50:07.541Z,22.50
2018-09-18T12:55:12.049Z,22.40
2018-09-18T13:00:16.615Z,22.40
2018-09-18T13:05:21.163Z,22.50
2018-09-18T13:10:26.112Z,22.70
2018-09-18T13:15:31.363Z,23.00
2018-09-18T13:20:36.074Z,23.30
2018-09-18T13:25:40.369Z,23.60
2018-09-18T13:30:45.411Z,23.90
2018-09-18T13:35:49.949Z,24.50
2018-09-18T13:40:54.595Z,25.00
2018-09-18T13:45:59.106Z,25.40
2018-09-18T13:51:05.207Z,25.60
2018-09-18T13:56:09.822Z,25.70
2018-09-18T14:01:14.227Z,25.60
2018-09-18T14:06:18.951Z,25.30
2018-09-18T14:11:23.511Z,25.20
2018-09-18T14:16:27.999Z,25.40
2018-09-18T14:21:32.871Z,25.70
2018-09-18T14:26:38.492Z,25.20
2018-09-18T14:31:43.079Z,24.90
2018-09-18T14:36:50.315Z,25.10
2018-09-18T14:41:55.015Z,26.00
2018-09-18T14:46:59.479Z,26.80
2018-09-18T14:52:04.648Z,27.30
2018-09-18T14:57:09.181Z,27.20
2018-09-18T15:02:14.113Z,27.10
2018-09-18T15:07:19.469Z,25.70
2018-09-18T15:12:23.887Z,25.00
2018-09-18T15:17:29.135Z,25.00
2018-09-18T15:22:34.439Z,25.50
2018-09-18T15:27:38.921Z,27.50
2018-09-18T15:32:48.482Z,29.10
2018-09-18T15:37:53.279Z,30.90
2018-09-18T15:42:57.914Z,31.20
2018-09-18T15:48:06.527Z,30.80
2018-09-18T15:53:11.338Z,30.40
2018-09-18T15:58:15.866Z,28.00
2018-09-18T16:03:21.413Z,26.10
2018-09-18T16:08:25.749Z,24.90
2018-09-18T16:13:30.591Z,24.50
2018-09-18T16:18:35.184Z,24.20
2018-09-18T16:23:39.676Z,24.40
2018-09-18T16:28:44.782Z,24.20
2018-09-18T16:39:15.228Z,23.60
2018-09-18T16:44:20.346Z,23.30
2018-09-18T16:49:25.098Z,23.10
2018-09-18T16:54:30.473Z,22.80
2018-09-18T16:59:35.037Z,22.50
2018-09-18T17:04:39.553Z,22.20
2018-09-18T17:09:43.995Z,21.80
2018-09-18T17:14:48.630Z,21.50
2018-09-18T17:19:59.569Z,21.10
2018-09-18T17:25:04.630Z,20.80
2018-09-18T17:30:10.560Z,20.40
2018-09-18T17:35:15.111Z,20.10
2018-09-18T17:40:19.808Z,19.90
2018-09-18T17:45:25.223Z,19.60
2018-09-18T17:50:30.019Z,19.50
2018-09-18T17:55:35.304Z,19.40
2018-09-18T18:00:39.846Z,19.20
2018-09-18T18:05:44.507Z,19.20
2018-09-18T18:10:48.914Z,19.00
2018-09-18T18:15:53.406Z,18.80
2018-09-18T18:20:58.654Z,18.70
2018-09-18T18:26:04.053Z,18.60
2018-09-18T18:31:08.552Z,18.40
2018-09-18T18:36:13.415Z,18.30
2018-09-18T18:41:18.038Z,18.30
2018-09-18T18:46:23.301Z,18.10
2018-09-18T18:51:28.472Z,18.00
2018-09-18T18:56:34.341Z,18.00
2018-09-18T19:01:39.075Z,18.00
2018-09-18T19:06:44.341Z,18.00
2018-09-18T19:11:51.158Z,17.90
2018-09-18T19:16:57.819Z,17.70
2018-09-18T19:22:04.357Z,17.70
2018-09-18T19:27:11.300Z,17.60
2018-09-18T19:32:17.671Z,17.40
2018-09-18T19:37:26.998Z,17.40
2018-09-18T19:42:33.817Z,17.30
2018-09-18T19:47:40.319Z,17.20
2018-09-18T19:52:48.546Z,17.10
2018-09-18T19:57:54.230Z,17.10
2018-09-18T20:02:59.661Z,17.00
2018-09-18T20:08:05.251Z,16.90
2018-09-18T20:13:14.466Z,16.70
2018-09-18T20:18:19.273Z,16.70
2018-09-18T20:23:24.527Z,16.90
2018-09-18T20:28:30.075Z,17.00
2018-09-18T20:33:35.056Z,17.00
2018-09-18T20:38:39.946Z,17.00
2018-09-18T20:43:45.134Z,17.10
2018-09-18T20:48:50.182Z,17.30
2018-09-18T20:53:54.865Z,17.50
2018-09-18T20:59:01.210Z,17.90
2018-09-18T21:04:07.225Z,18.60
2018-09-18T21:09:14.593Z,19.00
2018-09-18T21:14:22.202Z,19.30
2018-09-18T21:19:29.726Z,19.40
2018-09-18T21:24:34.448Z,19.40
2018-09-18T21:29:39.515Z,19.50
2018-09-18T21:34:44.438Z,19.30
2018-09-18T21:39:56.422Z,19.20
2018-09-18T21:45:02.261Z,19.10
2018-09-18T21:50:07.744Z,19.20
2018-09-18T21:55:18.580Z,19.20
2018-09-18T22:00:25.438Z,18.90
2018-09-18T22:05:34.293Z,18.60
2018-09-18T22:10:38.841Z,18.40
2018-09-18T22:15:43.813Z,18.10
2018-09-18T22:20:49.027Z,18.00
2018-09-18T22:25:53.544Z,18.00
2018-09-18T22:30:58.166Z,18.00
2018-09-18T22:36:02.630Z,18.00
2018-09-18T22:41:07.180Z,17.90
2018-09-18T22:46:11.804Z,17.90
2018-09-18T22:51:16.452Z,17.90
2018-09-18T22:56:20.848Z,17.80
2018-09-18T23:01:25.520Z,17.60
2018-09-18T23:06:30.749Z,17.60
2018-09-18T23:11:35.490Z,17.60
2018-09-18T23:16:40.079Z,17.40
2018-09-18T23:21:45.319Z,17.30
2018-09-18T23:26:49.622Z,17.30
2018-09-18T23:31:54.661Z,17.30
2018-09-18T23:36:59.408Z,17.20
2018-09-18T23:42:04.521Z,17.20
2018-09-18T23:47:09.262Z,17.00
2018-09-18T23:52:13.926Z,17.00
2018-09-18T23:57:18.456Z,16.60
